createdAt,value
2018-08-13T00:01:35.267Z,1.63
2018-08-13T00:04:04.376Z,1.17
2018-08-13T00:06:33.374Z,1.50
2018-08-13T00:09:02.518Z,1.70
2018-08-13T00:11:31.516Z,1.40
2018-08-13T00:14:00.606Z,1.43
2018-08-13T00:16:29.666Z,1.67
2018-08-13T00:18:58.779Z,1.40
2018-08-13T00:21:27.898Z,1.37
2018-08-13T00:23:57.065Z,1.60
2018-08-13T00:26:26.062Z,1.40
2018-08-13T00:28:55.070Z,1.80
2018-08-13T00:31:24.063Z,1.30
2018-08-13T00:33:53.200Z,1.90
2018-08-13T00:36:22.219Z,1.50
2018-08-13T00:38:51.184Z,1.70
2018-08-13T00:41:20.175Z,1.50
2018-08-13T00:43:49.266Z,1.60
2018-08-13T00:46:18.289Z,1.40
2018-08-13T00:48:47.322Z,1.30
2018-08-13T00:51:16.295Z,1.80
2018-08-13T00:53:45.284Z,1.40
2018-08-13T00:56:14.273Z,1.20
2018-08-13T00:58:43.333Z,1.80
2018-08-13T01:01:12.506Z,1.60
2018-08-13T01:03:41.633Z,1.30
2018-08-13T01:06:10.667Z,1.33
2018-08-13T01:08:39.666Z,1.40
2018-08-13T01:11:08.728Z,1.70
2018-08-13T01:13:37.831Z,1.30
2018-08-13T01:16:06.929Z,1.57
2018-08-13T01:18:35.966Z,1.37
2018-08-13T01:21:05.027Z,1.70
2018-08-13T01:23:34.163Z,1.80
2018-08-13T01:26:03.216Z,1.57
2018-08-13T01:28:32.218Z,1.80
2018-08-13T01:31:01.316Z,1.73
2018-08-13T01:33:30.415Z,1.77
2018-08-13T01:35:59.412Z,1.67
2018-08-13T01:38:30.266Z,1.50
2018-08-13T01:40:59.330Z,1.97
2018-08-13T01:43:28.354Z,1.80
2018-08-13T01:45:57.347Z,1.50
2018-08-13T01:48:26.341Z,1.80
2018-08-13T01:50:55.337Z,1.93
2018-08-13T01:53:24.444Z,1.80
2018-08-13T01:55:53.432Z,2.00
2018-08-13T01:58:22.500Z,2.20
2018-08-13T02:00:51.533Z,2.20
2018-08-13T02:03:20.550Z,2.33
2018-08-13T02:05:50.431Z,2.20
2018-08-13T02:08:19.446Z,1.90
2018-08-13T02:10:48.547Z,2.30
2018-08-13T02:13:17.535Z,2.57
2018-08-13T02:15:46.591Z,2.10
2018-08-13T02:18:15.579Z,1.60
2018-08-13T02:20:44.639Z,1.67
2018-08-13T02:23:13.733Z,2.40
2018-08-13T02:25:42.974Z,2.70
2018-08-13T02:28:12.243Z,3.60
2018-08-13T02:30:41.294Z,3.27
2018-08-13T02:33:10.322Z,3.10
2018-08-13T02:35:39.310Z,2.60
2018-08-13T02:38:08.840Z,2.57
2018-08-13T02:40:37.876Z,2.83
2018-08-13T02:43:06.895Z,2.40
2018-08-13T02:45:35.861Z,2.30
2018-08-13T02:48:05.140Z,2.60
2018-08-13T02:50:34.226Z,2.03
2018-08-13T02:53:03.236Z,2.50
2018-08-13T02:55:32.206Z,2.20
2018-08-13T02:58:01.285Z,2.50
2018-08-13T03:00:30.283Z,2.60
2018-08-13T03:02:59.328Z,2.80
2018-08-13T03:05:28.429Z,2.30
2018-08-13T03:07:57.514Z,2.47
2018-08-13T03:10:26.579Z,2.33
2018-08-13T03:12:55.725Z,2.23
2018-08-13T03:15:24.796Z,2.70
2018-08-13T03:17:53.816Z,2.70
2018-08-13T03:20:22.941Z,2.87
2018-08-13T03:22:51.943Z,3.00
2018-08-13T03:25:20.982Z,2.60
2018-08-13T03:27:50.110Z,2.87
2018-08-13T03:30:19.213Z,3.60
2018-08-13T03:32:48.358Z,2.97
2018-08-13T03:35:17.418Z,3.20
2018-08-13T03:37:46.502Z,3.03
2018-08-13T03:40:15.639Z,2.90
2018-08-13T03:42:44.710Z,2.70
2018-08-13T03:45:16.163Z,3.00
2018-08-13T03:47:45.257Z,2.80
2018-08-13T03:50:14.406Z,2.40
2018-08-13T03:52:43.886Z,3.37
2018-08-13T03:55:12.912Z,3.17
2018-08-13T03:57:42.374Z,2.90
2018-08-13T04:00:13.827Z,2.90
2018-08-13T04:02:43.233Z,2.70
2018-08-13T04:05:13.159Z,3.27
2018-08-13T04:07:42.339Z,3.00
2018-08-13T04:10:12.715Z,3.00
2018-08-13T04:12:42.877Z,2.83
2018-08-13T04:15:13.336Z,2.43
2018-08-13T04:17:43.147Z,2.67
2018-08-13T04:20:13.497Z,2.70
2018-08-13T04:22:46.276Z,2.60
2018-08-13T04:25:15.564Z,2.70
2018-08-13T04:27:44.671Z,2.70
2018-08-13T04:30:16.998Z,2.27
2018-08-13T04:32:46.841Z,2.30
2018-08-13T04:35:15.977Z,2.73
2018-08-13T04:37:46.091Z,3.10
2018-08-13T04:40:16.340Z,3.03
2018-08-13T04:42:46.419Z,2.90
2018-08-13T04:45:15.535Z,3.17
2018-08-13T04:47:48.102Z,3.60
2018-08-13T04:50:17.341Z,3.07
2018-08-13T04:52:46.637Z,2.60
2018-08-13T04:55:15.701Z,3.10
2018-08-13T04:57:44.804Z,3.40
2018-08-13T05:00:14.792Z,3.00
2018-08-13T05:02:44.551Z,3.17
2018-08-13T05:05:13.639Z,3.10
2018-08-13T05:07:42.750Z,2.67
2018-08-13T05:10:12.171Z,3.00
2018-08-13T05:12:42.459Z,3.50
2018-08-13T05:15:11.982Z,3.30
2018-08-13T05:17:41.079Z,3.00
2018-08-13T05:20:10.423Z,2.90
2018-08-13T05:22:40.574Z,2.80
2018-08-13T05:25:10.772Z,2.90
2018-08-13T05:27:40.559Z,2.70
2018-08-13T05:30:10.994Z,2.50
2018-08-13T05:32:40.178Z,2.50
2018-08-13T05:35:09.507Z,2.37
2018-08-13T05:37:39.096Z,2.03
2018-08-13T05:40:09.822Z,2.23
2018-08-13T05:42:39.226Z,2.40
2018-08-13T05:45:09.490Z,2.33
2018-08-13T05:47:38.612Z,1.90
2018-08-13T05:50:09.325Z,2.00
2018-08-13T05:52:38.604Z,2.00
2018-08-13T05:55:08.461Z,2.20
2018-08-13T05:57:37.520Z,2.23
2018-08-13T06:00:10.096Z,2.10
2018-08-13T06:02:40.812Z,2.10
2018-08-13T06:05:10.950Z,2.10
2018-08-13T06:07:40.357Z,1.83
2018-08-13T06:10:10.795Z,1.70
2018-08-13T06:12:40.309Z,1.83
2018-08-13T06:15:10.967Z,2.17
2018-08-13T06:17:40.035Z,2.10
2018-08-13T06:20:10.907Z,1.70
2018-08-13T06:22:41.611Z,1.80
2018-08-13T06:25:11.406Z,1.67
2018-08-13T06:27:40.723Z,1.67
2018-08-13T06:30:12.909Z,1.60
2018-08-13T06:32:42.625Z,1.50
2018-08-13T06:35:12.646Z,1.43
2018-08-13T06:37:42.662Z,1.50
2018-08-13T06:40:12.061Z,1.93
2018-08-13T06:42:41.231Z,1.57
2018-08-13T06:45:11.028Z,1.60
2018-08-13T06:47:40.693Z,1.73
2018-08-13T06:50:12.012Z,1.43
2018-08-13T06:52:42.294Z,1.70
2018-08-13T06:55:11.363Z,1.70
2018-08-13T06:57:40.464Z,1.50
2018-08-13T07:00:11.791Z,1.57
2018-08-13T07:02:41.131Z,1.50
2018-08-13T07:05:11.055Z,1.70
2018-08-13T07:07:40.977Z,1.57
2018-08-13T07:10:11.281Z,1.30
2018-08-13T07:12:42.660Z,1.80
2018-08-13T07:15:13.681Z,1.40
2018-08-13T07:17:42.838Z,2.00
2018-08-13T07:20:14.056Z,1.20
2018-08-13T07:22:43.455Z,1.40
2018-08-13T07:25:12.939Z,1.30
2018-08-13T07:27:42.610Z,1.43
2018-08-13T07:30:13.141Z,1.50
2018-08-13T07:32:42.931Z,1.37
2018-08-13T07:35:11.993Z,1.53
2018-08-13T07:37:41.827Z,1.90
2018-08-13T07:40:13.661Z,1.50
2018-08-13T07:42:43.310Z,1.63
2018-08-13T07:45:12.996Z,1.37
2018-08-13T07:47:42.438Z,1.77
2018-08-13T07:50:13.252Z,1.80
2018-08-13T07:52:42.383Z,1.63
2018-08-13T07:55:12.286Z,1.47
2018-08-13T07:57:41.755Z,1.85
2018-08-13T08:00:13.413Z,1.30
2018-08-13T08:02:42.634Z,1.62
2018-08-13T08:05:12.440Z,1.45
2018-08-13T08:07:41.851Z,1.55
2018-08-13T08:10:12.858Z,1.30
2018-08-13T08:12:42.213Z,1.50
2018-08-13T08:15:14.366Z,1.65
2018-08-13T08:17:44.004Z,1.50
2018-08-13T08:20:13.183Z,1.30
2018-08-13T08:22:42.978Z,1.30
2018-08-13T08:25:15.397Z,1.20
2018-08-13T08:27:45.182Z,1.40
2018-08-13T08:30:14.679Z,1.50
2018-08-13T08:32:44.028Z,1.62
2018-08-13T08:35:15.551Z,1.32
2018-08-13T08:37:44.855Z,1.20
2018-08-13T08:40:19.788Z,1.45
2018-08-13T08:42:49.935Z,1.65
2018-08-13T08:45:21.837Z,1.60
2018-08-13T08:47:51.717Z,1.40
2018-08-13T08:50:20.885Z,1.40
2018-08-13T08:52:50.707Z,1.52
2018-08-13T08:55:20.023Z,1.30
2018-08-13T08:57:50.138Z,1.50
2018-08-13T09:00:20.892Z,1.20
2018-08-13T09:02:49.997Z,1.25
2018-08-13T09:05:19.032Z,1.35
2018-08-13T09:07:48.692Z,1.53
2018-08-13T09:10:17.764Z,1.67
2018-08-13T09:12:46.849Z,1.67
2018-08-13T09:15:17.105Z,1.05
2018-08-13T09:17:58.409Z,1.17
2018-08-13T09:20:38.919Z,1.12
2018-08-13T09:23:19.295Z,0.98
2018-08-13T09:28:50.575Z,1.00
2018-08-13T09:32:33.443Z,1.20
2018-08-13T09:35:25.064Z,1.10
2018-08-13T09:37:54.987Z,1.20
2018-08-13T09:40:24.394Z,1.17
2018-08-13T09:42:53.509Z,1.35
2018-08-13T09:45:22.583Z,0.90
2018-08-13T09:47:51.642Z,1.45
2018-08-13T09:50:21.325Z,1.07
2018-08-13T09:52:50.798Z,1.10
2018-08-13T09:55:20.428Z,1.15
2018-08-13T09:57:50.215Z,1.52
2018-08-13T10:00:25.581Z,1.13
2018-08-13T10:02:55.268Z,0.85
2018-08-13T10:05:24.471Z,0.90
2018-08-13T10:07:53.565Z,1.25
2018-08-13T10:10:22.690Z,1.30
2018-08-13T10:12:51.688Z,1.10
2018-08-13T10:15:20.764Z,1.30
2018-08-13T10:17:50.269Z,1.67
2018-08-13T10:20:20.782Z,1.17
2018-08-13T10:22:51.840Z,0.98
2018-08-13T10:25:20.844Z,0.82
2018-08-13T10:27:49.956Z,1.00
2018-08-13T10:30:19.250Z,1.30
2018-08-13T10:32:48.769Z,1.27
2018-08-13T10:35:17.875Z,1.25
2018-08-13T10:37:46.868Z,1.05
2018-08-13T10:40:18.978Z,1.00
2018-08-13T10:42:49.515Z,1.32
2018-08-13T10:45:18.765Z,1.07
2018-08-13T10:47:47.755Z,1.22
2018-08-13T10:50:16.936Z,1.10
2018-08-13T10:52:46.055Z,1.30
2018-08-13T10:55:15.934Z,1.20
2018-08-13T10:57:44.956Z,1.37
2018-08-13T11:00:15.430Z,1.32
2018-08-13T11:02:44.636Z,1.30
2018-08-13T11:05:14.659Z,1.35
2018-08-13T11:07:43.821Z,1.35
2018-08-13T11:10:13.829Z,1.12
2018-08-13T11:12:42.778Z,1.40
2018-08-13T11:15:16.331Z,1.10
2018-08-13T11:17:45.440Z,1.20
2018-08-13T11:20:14.530Z,1.40
2018-08-13T11:22:43.821Z,1.35
2018-08-13T11:25:14.291Z,1.40
2018-08-13T11:27:43.556Z,1.80
2018-08-13T11:30:14.623Z,1.54
2018-08-13T11:32:43.827Z,1.57
2018-08-13T11:35:13.589Z,1.60
2018-08-13T11:37:42.635Z,1.90
2018-08-13T11:40:14.810Z,1.60
2018-08-13T11:42:43.898Z,1.60
2018-08-13T11:45:13.528Z,1.50
2018-08-13T11:47:42.719Z,1.60
2018-08-13T11:50:15.191Z,1.73
2018-08-13T11:52:45.871Z,2.17
2018-08-13T11:55:15.349Z,1.80
2018-08-13T11:57:45.865Z,1.77
2018-08-13T12:00:15.178Z,1.70
2018-08-13T12:02:44.337Z,1.00
2018-08-13T12:05:16.244Z,2.00
2018-08-13T12:07:46.154Z,1.80
2018-08-13T12:10:15.874Z,1.50
2018-08-13T12:12:45.680Z,1.90
2018-08-13T12:15:15.201Z,2.13
2018-08-13T12:17:44.901Z,2.10
2018-08-13T12:20:17.182Z,1.60
2018-08-13T12:22:47.941Z,1.40
2018-08-13T12:25:24.639Z,1.50
2018-08-13T12:27:54.187Z,1.50
2018-08-13T12:30:23.597Z,1.60
2018-08-13T12:32:53.624Z,1.40
2018-08-13T12:35:22.682Z,1.70
2018-08-13T12:37:52.328Z,1.60
2018-08-13T12:40:21.533Z,1.73
2018-08-13T12:42:50.747Z,1.33
2018-08-13T12:45:19.776Z,1.50
2018-08-13T12:47:49.057Z,1.50
2018-08-13T12:50:19.608Z,1.30
2018-08-13T12:52:49.778Z,1.73
2018-08-13T12:55:19.140Z,1.40
2018-08-13T12:57:48.439Z,1.67
2018-08-13T13:00:19.030Z,1.40
2018-08-13T13:02:48.153Z,1.60
2018-08-13T13:05:18.699Z,1.80
2018-08-13T13:07:48.504Z,1.70
2018-08-13T13:10:18.400Z,1.77
2018-08-13T13:12:47.894Z,1.60
2018-08-13T13:15:18.741Z,1.50
2018-08-13T13:17:48.025Z,1.33
2018-08-13T13:20:20.036Z,1.50
2018-08-13T13:22:49.659Z,1.83
2018-08-13T13:25:19.252Z,1.90
2018-08-13T13:27:48.340Z,1.63
2018-08-13T13:30:17.848Z,1.47
2018-08-13T13:32:46.976Z,1.40
2018-08-13T13:35:17.079Z,1.37
2018-08-13T13:37:46.170Z,1.23
2018-08-13T13:40:16.406Z,1.30
2018-08-13T13:42:45.860Z,1.73
2018-08-13T13:45:15.774Z,1.83
2018-08-13T13:47:44.899Z,1.70
2018-08-13T13:50:16.301Z,1.90
2018-08-13T13:52:45.808Z,1.80
2018-08-13T13:55:15.272Z,1.90
2018-08-13T13:57:44.389Z,1.33
2018-08-13T14:00:17.392Z,1.60
2018-08-13T14:02:47.838Z,2.30
2018-08-13T14:05:16.969Z,1.97
2018-08-13T14:07:46.364Z,1.80
2018-08-13T14:10:17.364Z,2.03
2018-08-13T14:12:46.774Z,1.60
2018-08-13T14:15:20.092Z,2.03
2018-08-13T14:17:49.687Z,1.97
2018-08-13T14:20:18.882Z,2.03
2018-08-13T14:22:49.724Z,1.67
2018-08-13T14:25:19.621Z,1.87
2018-08-13T14:27:48.879Z,1.63
2018-08-13T14:30:20.751Z,4.50
2018-08-13T14:32:50.191Z,1.90
2018-08-13T14:35:20.166Z,1.90
2018-08-13T14:37:49.348Z,1.57
2018-08-13T14:40:18.521Z,1.90
2018-08-13T14:42:47.650Z,1.90
2018-08-13T14:45:17.982Z,2.30
2018-08-13T14:47:48.585Z,2.20
2018-08-13T14:50:17.788Z,2.13
2018-08-13T14:52:47.822Z,2.27
2018-08-13T14:55:18.410Z,1.83
2018-08-13T14:57:47.541Z,2.00
2018-08-13T15:00:20.426Z,1.80
2018-08-13T15:02:49.953Z,2.00
2018-08-13T15:05:19.355Z,1.73
2018-08-13T15:07:48.436Z,1.93
2018-08-13T15:10:20.339Z,1.63
2018-08-13T15:12:49.674Z,1.67
2018-08-13T15:15:19.008Z,1.60
2018-08-13T15:17:48.738Z,1.60
2018-08-13T15:20:23.898Z,2.03
2018-08-13T15:22:53.178Z,1.80
2018-08-13T15:25:22.468Z,1.70
2018-08-13T15:27:51.676Z,1.80
2018-08-13T15:30:21.519Z,1.60
2018-08-13T15:32:51.315Z,1.80
2018-08-13T15:35:20.391Z,1.90
2018-08-13T15:37:49.712Z,1.80
2018-08-13T15:40:19.164Z,1.73
2018-08-13T15:42:48.441Z,2.07
2018-08-13T15:45:21.263Z,1.57
2018-08-13T15:47:50.676Z,1.80
2018-08-13T15:50:20.822Z,1.63
2018-08-13T15:52:50.342Z,1.60
2018-08-13T15:55:19.536Z,1.50
2018-08-13T15:57:48.763Z,1.30
2018-08-13T16:00:21.181Z,1.60
2018-08-13T16:02:50.660Z,1.40
2018-08-13T16:05:19.923Z,1.47
2018-08-13T16:07:49.454Z,1.40
2018-08-13T16:10:20.207Z,1.50
2018-08-13T16:12:50.079Z,1.80
2018-08-13T16:15:20.183Z,1.77
2018-08-13T16:17:49.418Z,1.43
2018-08-13T16:20:19.642Z,1.33
2018-08-13T16:22:50.550Z,1.50
2018-08-13T16:25:19.587Z,1.40
2018-08-13T16:27:48.887Z,1.57
2018-08-13T16:30:21.711Z,1.37
2018-08-13T16:32:50.974Z,1.40
2018-08-13T16:35:21.459Z,1.53
2018-08-13T16:37:50.531Z,1.40
2018-08-13T16:40:20.606Z,1.60
2018-08-13T16:42:50.465Z,1.70
2018-08-13T16:45:20.794Z,1.80
2018-08-13T16:47:50.063Z,1.37
2018-08-13T16:50:22.041Z,1.47
2018-08-13T16:52:51.334Z,1.23
2018-08-13T16:55:20.870Z,1.20
2018-08-13T16:57:49.933Z,1.43
2018-08-13T17:00:20.890Z,1.43
2018-08-13T17:02:50.080Z,1.60
2018-08-13T17:05:20.177Z,1.57
2018-08-13T17:07:50.694Z,1.20
2018-08-13T17:10:23.046Z,1.30
2018-08-13T17:12:52.901Z,1.60
2018-08-13T17:15:22.238Z,1.57
2018-08-13T17:17:52.767Z,1.20
2018-08-13T17:20:26.619Z,1.47
2018-08-13T17:22:55.778Z,1.20
2018-08-13T17:25:25.076Z,1.20
2018-08-13T17:27:54.176Z,1.30
2018-08-13T17:30:24.757Z,1.57
2018-08-13T17:32:55.375Z,1.60
2018-08-13T17:35:27.360Z,1.37
2018-08-13T17:37:56.812Z,1.10
2018-08-13T17:40:26.371Z,1.13
2018-08-13T17:42:56.062Z,1.30
2018-08-13T17:45:25.489Z,1.20
2018-08-13T17:47:54.751Z,1.10
2018-08-13T17:50:24.509Z,1.40
2018-08-13T17:52:55.141Z,1.33
2018-08-13T17:55:25.014Z,1.20
2018-08-13T17:57:54.111Z,1.30
2018-08-13T18:00:24.758Z,1.20
2018-08-13T18:02:54.160Z,1.20
2018-08-13T18:05:25.049Z,1.50
2018-08-13T18:07:54.807Z,1.40
2018-08-13T18:10:27.538Z,1.30
2018-08-13T18:12:57.693Z,1.37
2018-08-13T18:15:26.915Z,1.37
2018-08-13T18:17:56.974Z,1.33
2018-08-13T18:20:26.239Z,1.50
2018-08-13T18:22:55.439Z,1.60
2018-08-13T18:25:24.494Z,1.50
2018-08-13T18:27:53.843Z,1.70
2018-08-13T18:30:26.628Z,1.60
2018-08-13T18:32:56.020Z,1.77
2018-08-13T18:35:25.439Z,1.33
2018-08-13T18:37:54.647Z,1.63
2018-08-13T18:40:27.537Z,1.97
2018-08-13T18:42:56.872Z,1.97
2018-08-13T18:45:25.954Z,2.20
2018-08-13T18:47:55.131Z,2.10
2018-08-13T18:50:24.723Z,2.40
2018-08-13T18:52:53.948Z,2.10
2018-08-13T18:55:27.638Z,2.10
2018-08-13T18:57:56.748Z,2.00
2018-08-13T19:00:28.386Z,2.10
2018-08-13T19:02:58.751Z,2.00
2018-08-13T19:05:28.043Z,2.23
2018-08-13T19:07:57.153Z,2.70
2018-08-13T19:10:26.240Z,2.33
2018-08-13T19:12:55.438Z,2.43
2018-08-13T19:15:26.676Z,2.20
2018-08-13T19:17:55.851Z,2.50
2018-08-13T19:20:25.425Z,2.47
2018-08-13T19:22:54.599Z,2.70
2018-08-13T19:25:25.644Z,2.63
2018-08-13T19:27:54.846Z,2.63
2018-08-13T19:30:24.664Z,2.53
2018-08-13T19:32:54.230Z,2.50
2018-08-13T19:35:23.311Z,2.77
2018-08-13T19:37:52.391Z,2.67
2018-08-13T19:40:23.879Z,2.77
2018-08-13T19:42:53.155Z,2.37
2018-08-13T19:45:23.088Z,2.77
2018-08-13T19:47:52.690Z,3.07
2018-08-13T19:50:21.893Z,2.73
2018-08-13T19:52:51.382Z,2.90
2018-08-13T19:55:21.304Z,2.97
2018-08-13T19:57:50.488Z,2.80
2018-08-13T20:00:22.292Z,3.00
2018-08-13T20:02:51.964Z,2.97
2018-08-13T20:05:22.626Z,3.20
2018-08-13T20:07:52.142Z,3.00
2018-08-13T20:10:21.409Z,2.97
2018-08-13T20:12:50.611Z,3.13
2018-08-13T20:15:19.696Z,3.17
2018-08-13T20:17:48.788Z,2.50
2018-08-13T20:20:19.287Z,3.20
2018-08-13T20:22:50.180Z,3.00
2018-08-13T20:25:19.928Z,2.93
2018-08-13T20:27:49.824Z,2.70
2018-08-13T20:30:21.054Z,3.00
2018-08-13T20:32:51.173Z,2.73
2018-08-13T20:35:20.375Z,3.30
2018-08-13T20:37:49.786Z,2.93
2018-08-13T20:40:19.917Z,3.50
2018-08-13T20:42:49.512Z,3.00
2018-08-13T20:45:20.099Z,2.93
2018-08-13T20:47:49.244Z,3.10
2018-08-13T20:50:20.205Z,2.93
2018-08-13T20:52:50.554Z,3.40
2018-08-13T20:55:34.339Z,3.27
2018-08-13T20:58:03.453Z,3.33
2018-08-13T21:00:32.806Z,4.20
2018-08-13T21:03:01.864Z,3.57
2018-08-13T21:05:30.967Z,3.57
2018-08-13T21:08:00.059Z,4.07
2018-08-13T21:10:29.131Z,3.53
2018-08-13T21:12:58.262Z,3.60
2018-08-13T21:15:27.256Z,3.57
2018-08-13T21:17:56.353Z,3.30
2018-08-13T21:20:28.420Z,3.70
2018-08-13T21:22:57.554Z,3.70
2018-08-13T21:25:26.672Z,4.20
2018-08-13T21:27:55.761Z,3.80
2018-08-13T21:30:25.025Z,4.03
2018-08-13T21:32:54.129Z,3.50
2018-08-13T21:35:24.681Z,3.97
2018-08-13T21:37:53.753Z,3.90
2018-08-13T21:40:22.960Z,3.87
2018-08-13T21:42:52.142Z,4.27
2018-08-13T21:45:21.257Z,4.20
2018-08-13T21:47:50.372Z,4.10
2018-08-13T21:50:21.116Z,4.20
2018-08-13T21:52:50.821Z,4.07
2018-08-13T21:55:20.150Z,3.73
2018-08-13T21:57:49.312Z,4.57
2018-08-13T22:00:27.313Z,3.80
2018-08-13T22:02:57.719Z,4.13
2018-08-13T22:05:26.770Z,4.10
2018-08-13T22:07:55.839Z,3.73
2018-08-13T22:10:24.980Z,4.60
2018-08-13T22:12:54.035Z,4.47
2018-08-13T22:15:28.360Z,4.30
2018-08-13T22:17:59.120Z,4.10
2018-08-13T22:20:28.707Z,4.63
2018-08-13T22:22:59.029Z,4.70
2018-08-13T22:25:30.504Z,4.40
2018-08-13T22:28:00.019Z,4.40
2018-08-13T22:30:30.523Z,4.77
2018-08-13T22:32:59.631Z,4.23
2018-08-13T22:35:28.826Z,4.33
2018-08-13T22:37:57.834Z,4.43
2018-08-13T22:40:26.922Z,4.63
2018-08-13T22:42:56.051Z,4.67
2018-08-13T22:45:25.330Z,4.73
2018-08-13T22:47:54.422Z,4.40
2018-08-13T22:50:23.563Z,4.60
2018-08-13T22:52:52.625Z,4.50
2018-08-13T22:55:21.612Z,4.53
2018-08-13T22:57:50.723Z,4.77
2018-08-13T23:00:20.726Z,4.53
2018-08-13T23:02:50.667Z,4.73
2018-08-13T23:05:23.172Z,5.53
2018-08-13T23:07:52.358Z,4.80
2018-08-13T23:10:22.433Z,4.80
2018-08-13T23:12:52.592Z,5.03
2018-08-13T23:15:21.589Z,5.30
2018-08-13T23:17:50.987Z,4.60
2018-08-13T23:20:22.236Z,4.70
2018-08-13T23:22:52.665Z,5.33
2018-08-13T23:25:21.732Z,5.33
2018-08-13T23:27:51.974Z,5.10
2018-08-13T23:30:21.084Z,5.33
2018-08-13T23:32:51.409Z,4.47
2018-08-13T23:35:21.232Z,4.73
2018-08-13T23:37:50.644Z,4.33
2018-08-13T23:40:19.703Z,4.27
2018-08-13T23:42:48.821Z,4.07
2018-08-13T23:45:19.140Z,3.93
2018-08-13T23:47:48.322Z,3.70
2018-08-13T23:50:21.705Z,3.97
2018-08-13T23:52:52.053Z,4.43
2018-08-13T23:55:25.590Z,4.13
2018-08-13T23:57:54.997Z,4.53
